• Join FlightAware (Why Join?)
  • Login
  • US Flag 
08:13PM EDT


 

Airport Tracker/Info


-or-


 

Live Flight TrackerFlight Track Log ✈ AAY580 ✈ 13-May-2013 ✈ KLAS - KBLI

Flight Track Log - Related Links

Times and Time Zones

All times are in EDT time to prevent confusion due to time zone crossing. See the AAY580 flight status page for this flight to view local times or setup timezone preferences in your user account.

Time Position Orientation Groundspeed Altitude Reporting Facility
EDT Latitude Longitude Course Direction KTS MPH feet Rate Location/Type
11:18AM 36.0767 -115.1706 267° West 231 266 3,100  Level Los Angeles Center
11:19AM 36.0739 -115.2381 267° West 233 268 4,300 1,560 Climbing Los Angeles Center
11:20AM 36.0242 -115.2758 212° Southwest 344 396 6,100 1,380 Climbing Los Angeles Center
11:21AM 35.9558 -115.3181 207° Southwest 295 339 7,100 1,380 Climbing Los Angeles Center
11:22AM 35.9014 -115.3911 227° Southwest 290 334 9,000 1,620 Climbing Los Angeles Center
11:23AM 35.8881 -115.5103 262° West 301 346 10,500 960 Climbing Los Angeles Center
11:24AM 35.8886 -115.6253 270° West 341 392 11,100 960 Climbing Los Angeles Center
11:25AM 35.8928 -115.7711 272° West 393 452 12,600 1,860 Climbing Los Angeles Center
11:26AM 35.8964 -115.9086 272° West 400 460 15,000 2,460 Climbing Los Angeles Center
11:27AM 35.9556 -116.0347 300° West 413 475 17,700 2,220 Climbing Los Angeles Center
11:28AM 36.0397 -116.1364 316° Northwest 424 488 19,600 1,500 Climbing Los Angeles Center
11:29AM 36.1253 -116.2333 318° Northwest 440 506 20,900 1,500 Climbing Los Angeles Center
11:30AM 36.2164 -116.3389 317° Northwest 448 516 22,700 1,680 Climbing Los Angeles Center
11:31AM 36.3089 -116.4486 316° Northwest 457 526 24,400 1,860 Climbing Los Angeles Center
11:32AM 36.4214 -116.5756 318° Northwest 458 527 26,600 1,740 Climbing Los Angeles Center
11:33AM 36.5117 -116.6856 316° Northwest 458 527 28,100 1,440 Climbing Los Angeles Center
11:34AM 36.6078 -116.7856 320° Northwest 458 527 29,600 1,200 Climbing Los Angeles Center
11:35AM 36.7181 -116.8608 331° Northwest 457 526 30,700 960 Climbing Los Angeles Center
11:36AM 36.8256 -116.9439 328° Northwest 454 522 31,700 600 Climbing Los Angeles Center
11:37AM 36.9517 -117.0450 327° Northwest 450 518 32,000 120 Climbing Los Angeles Center
11:38AM 37.0597 -117.1247 330° Northwest 450 518 32,000  Level Los Angeles Center
11:39AM 37.1678 -117.2092 328° Northwest 454 522 32,000  Level Los Angeles Center
11:40AM 37.2744 -117.2936 328° Northwest 450 518 32,000  Level Oakland Center
11:41AM 37.3781 -117.3764 328° Northwest 440 506 32,000  Level Oakland Center
11:42AM 37.4794 -117.4686 324° Northwest 446 513 32,000  Level Oakland Center
11:43AM 37.5817 -117.5611 324° Northwest 448 516 32,000  Level Oakland Center
11:45AM 37.6842 -117.6511 325° Northwest 446 513 32,000  Level Oakland Center
11:46AM 37.7847 -117.7464 323° Northwest 447 514 32,000  Level Oakland Center
11:47AM 37.8875 -117.8358 326° Northwest 447 514 32,000  Level Oakland Center
11:48AM 37.9878 -117.9328 323° Northwest 449 517 32,000  Level Oakland Center
11:49AM 38.0911 -118.0247 325° Northwest 449 517 32,000  Level Oakland Center
11:50AM 38.2025 -118.1339 322° Northwest 454 522 32,000  Level Oakland Center
11:51AM 38.3056 -118.2272 325° Northwest 456 525 32,000  Level Oakland Center
11:52AM 38.4056 -118.3247 323° Northwest 453 521 32,000  Level Oakland Center
11:53AM 38.5083 -118.4189 324° Northwest 455 524 32,000  Level Oakland Center
11:54AM 38.6100 -118.5186 323° Northwest 458 527 32,000  Level Oakland Center
11:55AM 38.7128 -118.6164 323° Northwest 459 528 32,000  Level Oakland Center
11:56AM 38.8372 -118.7325 324° Northwest 459 528 32,000  Level Oakland Center
11:57AM 38.9364 -118.8336 322° Northwest 455 524 32,000  Level Oakland Center
11:58AM 39.0386 -118.9294 324° Northwest 452 520 32,000  Level Oakland Center
11:59AM 39.1378 -119.0294 322° Northwest 449 517 32,000  Level Oakland Center
12:00PM 39.2469 -119.1164 328° Northwest 456 525 32,000  Level Oakland Center
12:01PM 39.3731 -119.1622 344° North 466 536 32,000 180 Level Oakland Center
12:02PM 39.4958 -119.2169 341° North 463 533 32,400 480 Climbing Oakland Center
12:03PM 39.6222 -119.2644 344° North 468 539 33,100 600 Climbing Oakland Center
12:04PM 39.7483 -119.3169 342° North 472 543 33,700 420 Climbing Oakland Center
12:05PM 39.8758 -119.3653 344° North 474 545 34,000 120 Climbing Oakland Center
12:06PM 40.0022 -119.4203 342° North 478 550 34,000  Level Oakland Center
12:07PM 40.1342 -119.4650 345° North 485 558 34,000  Level Oakland Center
12:08PM 40.2878 -119.5311 342° North 483 556 34,000  Level Oakland Center
12:09PM 40.4158 -119.5811 343° North 480 552 34,000  Level Oakland Center
12:10PM 40.5414 -119.6347 342° North 477 549 34,000  Level Oakland Center
12:11PM 40.6733 -119.6847 344° North 490 564 34,000  Level Oakland Center
12:12PM 40.7992 -119.7364 343° North 483 556 34,000  Level Oakland Center
12:13PM 40.9253 -119.7881 343° North 476 548 34,000  Level Oakland Center
12:14PM 40.9736 -119.8111 340° North 474 545 34,000  Level Seattle Center
12:15PM 41.1003 -119.8594 344° North 476 548 34,000  Level Seattle Center
12:15PM 41.1731 -119.8925 341° North 469 540 34,000  Level Oakland Center
12:16PM 41.2233 -119.9133 343° North 469 540 34,000  Level Seattle Center
12:17PM 41.3489 -119.9656 343° North 473 544 34,000  Level Seattle Center
12:18PM 41.4733 -120.0225 341° North 475 547 34,000  Level Seattle Center
12:19PM 41.5953 -120.0878 338° Northwest 474 545 34,000  Level Seattle Center
12:20PM 41.7178 -120.1475 340° North 471 542 34,000  Level Seattle Center
12:21PM 41.8633 -120.2250 338° Northwest 471 542 34,000  Level Seattle Center
12:22PM 41.9850 -120.2886 339° North 469 540 34,000  Level Seattle Center
12:23PM 42.1042 -120.3478 340° North 467 537 34,000  Level Seattle Center
12:24PM 42.2383 -120.3850 348° North 490 564 34,000  Level Seattle Center
12:25PM 42.3686 -120.4278 346° North 482 555 34,000  Level Seattle Center
12:26PM 42.4994 -120.4639 348° North 487 560 34,000  Level Seattle Center
12:27PM 42.6303 -120.5064 347° North 486 559 34,000  Level Seattle Center
12:28PM 42.7628 -120.5433 348° North 488 562 34,000  Level Seattle Center
12:29PM 42.8917 -120.5869 346° North 481 554 34,000  Level Seattle Center
12:30PM 43.0233 -120.6236 348° North 485 558 34,000  Level Seattle Center
12:31PM 43.1528 -120.6669 346° North 483 556 34,000  Level Seattle Center
12:32PM 43.3108 -120.7139 348° North 486 559 34,000  Level Seattle Center
12:33PM 43.4406 -120.7514 348° North 480 552 34,000  Level Seattle Center
12:34PM 43.5747 -120.7975 346° North 483 556 34,000  Level Seattle Center
12:35PM 43.7089 -120.8342 349° North 491 565 34,000  Level Seattle Center
12:36PM 43.8408 -120.8806 346° North 488 562 34,000  Level Seattle Center
12:37PM 43.9747 -120.9197 348° North 491 565 34,000  Level Seattle Center
12:38PM 44.1075 -120.9681 345° North 490 564 34,000  Level Seattle Center
12:39PM 44.2447 -121.0081 348° North 503 579 34,000  Level Seattle Center
12:40PM 44.3750 -121.0517 347° North 497 572 34,000  Level Seattle Center
12:41PM 44.5092 -121.0925 348° North 499 574 34,000  Level Seattle Center
12:42PM 44.6453 -121.1425 345° North 488 562 34,000  Level Seattle Center
12:43PM 44.7800 -121.1828 348° North 493 567 34,000  Level Seattle Center
12:44PM 44.9117 -121.2289 346° North 487 560 34,000  Level Seattle Center
12:45PM 45.0461 -121.2708 348° North 491 565 34,000  Level Seattle Center
12:46PM 45.1811 -121.3164 347° North 497 572 34,000  Level Seattle Center
12:47PM 45.3425 -121.3722 346° North 498 573 34,000  Level Seattle Center
12:48PM 45.4778 -121.4125 348° North 499 574 34,000  Level Seattle Center
12:49PM 45.6114 -121.4622 345° North 496 571 34,000  Level Seattle Center
12:50PM 45.7481 -121.5042 348° North 499 574 34,000  Level Seattle Center
12:51PM 45.8822 -121.5547 345° North 500 575 34,000  Level Seattle Center
12:52PM 46.0217 -121.5983 348° North 508 585 34,000  Level Seattle Center
12:53PM 46.1594 -121.6478 346° North 511 588 34,000  Level Seattle Center
12:54PM 46.2956 -121.6931 347° North 512 589 34,000  Level Seattle Center
12:55PM 46.4311 -121.7450 345° North 511 588 34,000  Level Seattle Center
12:56PM 46.5689 -121.7878 348° North 513 590 34,000  Level Seattle Center
12:57PM 46.7050 -121.8417 345° North 514 592 34,000  Level Seattle Center
12:58PM 46.8722 -121.8944 348° North 519 597 34,000 -900 Level Seattle Center
12:59PM 47.0089 -121.9475 345° North 514 592 32,200 -1,860 Descending Seattle Center
01:00PM 47.1422 -121.9944 347° North 499 574 30,300 -1,920 Descending Seattle Center
01:01PM 47.2697 -122.0417 346° North 481 554 28,400 -1,920 Descending Seattle Center
01:02PM 47.3961 -122.0881 346° North 474 545 26,500 -1,860 Descending Seattle Center
01:03PM 47.5153 -122.1297 347° North 452 520 24,700 -2,100 Descending Seattle Center
01:04PM 47.6497 -122.1789 346° North 430 495 22,300 -1,980 Descending Seattle Center
01:05PM 47.7594 -122.2133 348° North 421 484 20,700 -1,620 Descending Seattle Center
01:06PM 47.8647 -122.2461 348° North 399 459 19,100 -1,680 Descending Seattle Center
01:07PM 47.9300 -122.2683 347° North 381 438 18,000 -1,920 Descending Seattle Center
01:07PM 47.9642 -122.2817 345° North 378 435 17,200 -2,100 Descending Seattle Center
01:08PM 48.0606 -122.3128 348° North 361 415 15,000 -1,980 Descending Seattle Center
01:10PM 48.1522 -122.3408 348° North 342 394 13,200 -1,860 Descending Seattle Center
01:11PM 48.2611 -122.3703 350° North 334 384 11,300 -1,680 Descending Seattle Center
01:12PM 48.3453 -122.4008 346° North 316 364 9,900 -1,320 Descending Seattle Center
01:13PM 48.4286 -122.4256 349° North 311 358 8,700 -1,260 Descending Seattle Center
01:14PM 48.5125 -122.4528 348° North 313 360 7,400 -1,320 Descending Seattle Center
01:15PM 48.5944 -122.4753 350° North 307 353 6,100 -720 Descending Seattle Center
01:16PM 48.6664 -122.4725 North 270 311 6,000 -180 Descending Seattle Center
01:16PM 48.6833 -122.4667 13° North 260 299 5,900 -900 Descending Vancouver Center
01:17PM 48.7500 -122.4500 North 260 299 4,900 -1,020 Descending Vancouver Center
01:18PM 48.8333 -122.4333 North 260 299 3,900 -1,080 Descending Vancouver Center
01:19PM 48.9000 -122.4333 360° North 250 288 2,800 -960 Descending Vancouver Center
01:20PM 48.9500 -122.4833 327° Northwest 230 265 2,000 -420 Descending Vancouver Center
01:21PM 48.9167 -122.5333 225° Southwest 180 207 2,000  Level Vancouver Center